Terminal Aerodrome Forecast
Issued by NWS St Louis, MO

Home | Current Version | Previous Version | Text Only | Print | Product List | Glossary On
Versions: 1 2 3 4 5 6 7 8 9 10 11 12 13 14 15 16 17 18 19 20
366
FTUS43 KLSX 311013 AAB
TAFCOU
TAF AMD
KCOU 311013Z 3110/0106 00000KT P6SM BKN090
     FM311500 34008KT P6SM BKN035
     FM010100 36005KT P6SM FEW050 BKN120=

USA.gov is the U.S. government's official web portal to all federal, state and local government web resources and services.